createdAt,value
2019-05-21T00:01:07.798Z,14.80
2019-05-21T00:03:36.817Z,14.90
2019-05-21T00:06:06.225Z,14.80
2019-05-21T00:08:35.514Z,14.80
2019-05-21T00:11:04.715Z,14.70
2019-05-21T00:13:34.017Z,14.70
2019-05-21T00:16:03.043Z,14.80
2019-05-21T00:18:33.116Z,14.70
2019-05-21T00:21:02.132Z,14.60
2019-05-21T00:23:31.148Z,14.60
2019-05-21T00:25:59.918Z,14.60
2019-05-21T00:28:42.505Z,14.60
2019-05-21T00:31:47.804Z,14.60
2019-05-21T00:34:52.997Z,14.60
2019-05-21T00:37:57.869Z,14.60
2019-05-21T00:41:03.053Z,14.60
2019-05-21T00:43:49.632Z,14.60
2019-05-21T00:46:18.550Z,14.60
2019-05-21T00:48:47.425Z,14.60
2019-05-21T00:51:16.522Z,14.60
2019-05-21T00:53:45.814Z,14.60
2019-05-21T00:56:14.842Z,14.60
2019-05-21T00:58:43.751Z,14.60
2019-05-21T01:01:13.161Z,14.60
2019-05-21T01:03:43.405Z,14.60
2019-05-21T01:06:12.309Z,14.50
2019-05-21T01:08:41.406Z,14.50
2019-05-21T01:11:10.193Z,14.50
2019-05-21T01:13:39.218Z,14.50
2019-05-21T01:16:07.999Z,14.50
2019-05-21T01:18:37.353Z,14.40
2019-05-21T01:21:06.325Z,14.40
2019-05-21T01:23:35.542Z,14.40
2019-05-21T01:26:05.074Z,14.40
2019-05-21T01:28:34.161Z,14.40
2019-05-21T01:31:03.208Z,14.40
2019-05-21T01:33:32.506Z,14.40
2019-05-21T01:36:01.319Z,14.40
2019-05-21T01:38:30.081Z,14.40
2019-05-21T01:40:59.369Z,14.40
2019-05-21T01:43:28.429Z,14.30
2019-05-21T01:45:57.453Z,14.30
2019-05-21T01:48:26.501Z,14.40
2019-05-21T01:50:55.537Z,14.40
2019-05-21T01:53:24.404Z,14.50
2019-05-21T01:55:53.782Z,14.50
2019-05-21T01:58:22.579Z,14.40
2019-05-21T02:00:51.961Z,14.40
2019-05-21T02:03:21.383Z,14.30
2019-05-21T02:05:50.725Z,14.30
2019-05-21T02:08:19.538Z,14.40
2019-05-21T02:10:48.373Z,14.30
2019-05-21T02:13:17.177Z,14.30
2019-05-21T02:15:46.529Z,14.30
2019-05-21T02:18:15.363Z,14.40
2019-05-21T02:20:44.374Z,14.30
2019-05-21T02:23:13.154Z,14.30
2019-05-21T02:25:42.922Z,14.30
2019-05-21T02:28:11.958Z,14.40
2019-05-21T02:30:40.980Z,14.40
2019-05-21T02:33:10.059Z,14.30
2019-05-21T02:35:53.610Z,14.40
2019-05-21T02:38:09.491Z,14.40
2019-05-21T02:40:38.298Z,14.30
2019-05-21T02:43:07.407Z,14.30
2019-05-21T02:45:36.191Z,14.20
2019-05-21T02:48:05.161Z,14.20
2019-05-21T02:50:34.001Z,14.20
2019-05-21T02:53:03.021Z,14.20
2019-05-21T02:55:51.065Z,14.20
2019-05-21T02:58:20.243Z,14.20
2019-05-21T03:01:01.737Z,14.20
2019-05-21T03:03:31.989Z,14.20
2019-05-21T03:06:13.335Z,14.20
2019-05-21T03:08:31.773Z,14.30
2019-05-21T03:11:00.571Z,14.30
2019-05-21T03:13:29.470Z,14.30
2019-05-21T03:15:58.403Z,14.30
2019-05-21T03:18:27.165Z,14.30
2019-05-21T03:20:56.034Z,14.40
2019-05-21T03:23:24.845Z,14.30
2019-05-21T03:25:53.718Z,14.30
2019-05-21T03:28:22.561Z,14.20
2019-05-21T03:30:51.407Z,14.20
2019-05-21T03:33:20.364Z,14.20
2019-05-21T03:35:49.611Z,14.20
2019-05-21T03:38:18.902Z,14.10
2019-05-21T03:40:47.929Z,14.10
2019-05-21T03:43:16.758Z,14.10
2019-05-21T03:45:45.884Z,14.10
2019-05-21T03:48:14.737Z,14.10
2019-05-21T03:50:43.507Z,14.00
2019-05-21T03:53:18.587Z,14.00
2019-05-21T03:55:47.622Z,14.00
2019-05-21T03:58:16.666Z,13.90
2019-05-21T04:00:45.540Z,13.90
2019-05-21T04:03:14.642Z,13.90
2019-05-21T04:05:43.438Z,13.90
2019-05-21T04:08:12.478Z,13.90
2019-05-21T04:10:41.570Z,13.80
2019-05-21T04:13:10.861Z,13.80
2019-05-21T04:16:15.874Z,13.90
2019-05-21T04:18:52.546Z,13.80
2019-05-21T04:21:21.574Z,13.80
2019-05-21T04:23:50.983Z,13.80
2019-05-21T04:26:20.183Z,13.80
2019-05-21T04:28:49.652Z,13.90
2019-05-21T04:31:18.681Z,13.90
2019-05-21T04:33:47.967Z,13.90
2019-05-21T04:36:16.758Z,14.00
2019-05-21T04:38:45.861Z,13.90
2019-05-21T04:41:14.674Z,13.80
2019-05-21T04:43:43.467Z,13.90
2019-05-21T04:46:12.271Z,13.90
2019-05-21T04:48:41.209Z,13.90
2019-05-21T04:51:13.560Z,13.90
2019-05-21T04:53:40.550Z,13.90
2019-05-21T04:56:09.398Z,13.80
2019-05-21T04:58:38.196Z,13.80
2019-05-21T05:01:07.374Z,13.70
2019-05-21T05:03:36.513Z,13.70
2019-05-21T05:06:05.688Z,13.70
2019-05-21T05:08:34.763Z,13.70
2019-05-21T05:11:03.574Z,13.60
2019-05-21T05:13:32.911Z,13.60
2019-05-21T05:16:04.055Z,13.60
2019-05-21T05:18:32.802Z,13.60
2019-05-21T05:21:01.593Z,13.60
2019-05-21T05:23:30.921Z,13.60
2019-05-21T05:26:00.109Z,13.50
2019-05-21T05:28:28.989Z,13.50
2019-05-21T05:30:58.382Z,13.50
2019-05-21T05:33:27.450Z,13.50
2019-05-21T05:35:56.327Z,13.50
2019-05-21T05:38:25.225Z,13.50
2019-05-21T05:40:54.104Z,13.50
2019-05-21T05:43:23.159Z,13.50
2019-05-21T05:45:52.218Z,13.50
2019-05-21T05:48:21.549Z,13.50
2019-05-21T05:50:52.918Z,13.60
2019-05-21T05:53:21.961Z,13.60
2019-05-21T05:55:51.003Z,13.60
2019-05-21T05:58:19.804Z,13.50
2019-05-21T06:00:57.147Z,13.50
2019-05-21T06:03:27.942Z,13.50
2019-05-21T06:05:56.825Z,13.50
2019-05-21T06:08:25.931Z,13.50
2019-05-21T06:10:54.802Z,13.50
2019-05-21T06:13:23.581Z,13.50
2019-05-21T06:15:52.381Z,13.50
2019-05-21T06:18:21.401Z,13.50
2019-05-21T06:20:50.207Z,13.60
2019-05-21T06:23:18.989Z,13.60
2019-05-21T06:25:47.843Z,13.50
2019-05-21T06:28:16.656Z,13.50
2019-05-21T06:30:45.426Z,13.50
2019-05-21T06:33:14.229Z,13.50
2019-05-21T06:35:43.048Z,13.50
2019-05-21T06:38:17.573Z,13.60
2019-05-21T06:40:42.429Z,13.60
2019-05-21T06:43:19.145Z,13.60
2019-05-21T06:45:48.031Z,13.60
2019-05-21T06:48:17.240Z,13.60
2019-05-21T06:50:46.051Z,13.60
2019-05-21T06:53:15.404Z,13.60
2019-05-21T06:55:45.530Z,13.60
2019-05-21T06:58:22.579Z,13.50
2019-05-21T07:00:51.445Z,13.50
2019-05-21T07:03:21.059Z,13.50
2019-05-21T07:05:59.023Z,13.50
2019-05-21T07:08:33.565Z,13.50
2019-05-21T07:10:51.570Z,13.50
2019-05-21T07:13:20.622Z,13.50
2019-05-21T07:15:49.409Z,13.50
2019-05-21T07:18:18.212Z,13.60
2019-05-21T07:20:48.550Z,13.60
2019-05-21T07:23:17.965Z,13.60
2019-05-21T07:25:46.973Z,13.60
2019-05-21T07:28:15.758Z,13.60
2019-05-21T07:30:44.632Z,13.60
2019-05-21T07:33:13.506Z,13.60
2019-05-21T07:35:42.636Z,13.60
2019-05-21T07:38:11.706Z,13.60
2019-05-21T07:40:40.578Z,13.60
2019-05-21T07:43:09.400Z,13.60
2019-05-21T07:45:38.461Z,13.60
2019-05-21T07:48:07.303Z,13.70
2019-05-21T07:50:36.398Z,13.60
2019-05-21T07:53:05.558Z,13.70
2019-05-21T07:55:34.668Z,13.70
2019-05-21T07:58:03.942Z,13.70
2019-05-21T08:00:32.834Z,13.80
2019-05-21T08:03:01.653Z,13.80
2019-05-21T08:05:30.708Z,13.70
2019-05-21T08:07:59.590Z,13.80
2019-05-21T08:10:28.607Z,13.80
2019-05-21T08:12:57.426Z,13.80
2019-05-21T08:15:26.410Z,13.80
2019-05-21T08:17:55.878Z,13.80
2019-05-21T08:20:25.710Z,13.80
2019-05-21T08:22:54.587Z,13.80
2019-05-21T08:25:23.519Z,13.80
2019-05-21T08:27:52.365Z,13.80
2019-05-21T08:30:21.779Z,13.80
2019-05-21T08:32:50.891Z,13.90
2019-05-21T08:35:19.881Z,13.80
2019-05-21T08:37:49.014Z,13.80
2019-05-21T08:40:18.425Z,13.80
2019-05-21T08:42:47.491Z,13.80
2019-05-21T08:45:16.669Z,13.90
2019-05-21T08:47:45.477Z,13.90
2019-05-21T08:50:14.798Z,13.80
2019-05-21T08:52:43.658Z,13.80
2019-05-21T08:55:12.646Z,13.90
2019-05-21T08:57:41.806Z,13.90
2019-05-21T09:00:13.358Z,13.90
2019-05-21T09:02:42.537Z,13.90
2019-05-21T09:05:12.035Z,13.90
2019-05-21T09:07:40.962Z,13.90
2019-05-21T09:10:10.267Z,13.90
2019-05-21T09:12:39.306Z,14.00
2019-05-21T09:15:09.250Z,14.00
2019-05-21T09:17:44.258Z,14.00
2019-05-21T09:20:14.336Z,14.00
2019-05-21T09:22:43.173Z,14.00
2019-05-21T09:25:12.165Z,14.00
2019-05-21T09:27:41.094Z,14.10
2019-05-21T09:30:11.073Z,14.10
2019-05-21T09:32:39.946Z,14.10
2019-05-21T09:35:09.162Z,14.10
2019-05-21T09:37:38.292Z,14.10
2019-05-21T09:40:07.837Z,14.10
2019-05-21T09:42:36.941Z,14.10
2019-05-21T09:45:07.166Z,14.10
2019-05-21T09:47:36.043Z,14.20
2019-05-21T09:50:05.663Z,14.30
2019-05-21T09:52:34.632Z,14.20
2019-05-21T09:55:03.455Z,14.20
2019-05-21T09:57:51.384Z,14.20
2019-05-21T10:00:49.402Z,14.20
2019-05-21T10:03:20.285Z,14.20
2019-05-21T10:05:49.399Z,14.10
2019-05-21T10:08:18.413Z,14.10
2019-05-21T10:10:47.517Z,14.20
2019-05-21T10:13:16.377Z,14.20
2019-05-21T10:15:45.238Z,14.20
2019-05-21T10:18:14.150Z,14.20
2019-05-21T10:20:43.149Z,14.20
2019-05-21T10:23:12.006Z,14.20
2019-05-21T10:25:40.885Z,14.20
2019-05-21T10:28:09.914Z,14.20
2019-05-21T10:30:38.722Z,14.20
2019-05-21T10:33:07.934Z,14.20
2019-05-21T10:35:37.731Z,14.30
2019-05-21T10:38:06.873Z,14.30
2019-05-21T10:40:35.845Z,14.40
2019-05-21T10:43:04.782Z,14.40
2019-05-21T10:45:34.785Z,14.30
2019-05-21T10:48:04.861Z,14.40
2019-05-21T10:50:33.709Z,14.40
2019-05-21T10:53:02.575Z,14.40
2019-05-21T10:55:31.440Z,14.40
2019-05-21T10:58:00.265Z,14.50
2019-05-21T11:00:29.802Z,14.50
2019-05-21T11:03:17.793Z,14.50
2019-05-21T11:05:50.131Z,14.50
2019-05-21T11:08:23.956Z,14.60
2019-05-21T11:10:49.675Z,14.60
2019-05-21T11:13:18.562Z,14.60
2019-05-21T11:15:48.170Z,14.60
2019-05-21T11:18:17.287Z,14.60
2019-05-21T11:20:46.273Z,14.50
2019-05-21T11:23:15.133Z,14.50
2019-05-21T11:25:43.917Z,14.50
2019-05-21T11:28:13.038Z,14.50
2019-05-21T11:30:41.825Z,14.40
2019-05-21T11:33:10.756Z,14.40
2019-05-21T11:35:39.620Z,14.40
2019-05-21T11:38:08.498Z,14.40
2019-05-21T11:40:37.601Z,14.40
2019-05-21T11:43:06.715Z,14.30
2019-05-21T11:45:35.891Z,14.40
2019-05-21T11:48:05.069Z,14.30
2019-05-21T11:50:34.191Z,14.30
2019-05-21T11:53:03.656Z,14.40
2019-05-21T11:55:32.705Z,14.40
2019-05-21T11:58:01.498Z,14.40
2019-05-21T12:00:30.546Z,14.40
2019-05-21T12:02:59.447Z,14.30
2019-05-21T12:05:28.265Z,14.30
2019-05-21T12:07:57.723Z,14.30
2019-05-21T12:10:26.813Z,14.30
2019-05-21T12:12:55.710Z,14.30
2019-05-21T12:15:24.867Z,14.30
2019-05-21T12:17:53.674Z,14.30
2019-05-21T12:20:36.115Z,14.30
2019-05-21T12:22:53.241Z,14.30
2019-05-21T12:25:22.158Z,14.30
2019-05-21T12:27:50.964Z,14.30
2019-05-21T12:30:20.383Z,14.30
2019-05-21T12:32:49.274Z,14.30
2019-05-21T12:35:18.222Z,14.40
2019-05-21T12:37:47.279Z,14.40
2019-05-21T12:40:17.368Z,14.40
2019-05-21T12:42:46.489Z,14.40
2019-05-21T12:45:15.343Z,14.30
2019-05-21T12:47:44.298Z,14.30
2019-05-21T12:50:13.806Z,14.40
2019-05-21T12:52:42.588Z,14.40
2019-05-21T12:55:12.856Z,14.30
2019-05-21T12:57:42.337Z,14.30
2019-05-21T13:00:13.492Z,14.30
2019-05-21T13:02:42.662Z,14.30
2019-05-21T13:05:11.929Z,14.30
2019-05-21T13:07:41.466Z,14.30
2019-05-21T13:10:11.417Z,14.30
2019-05-21T13:12:40.300Z,14.20
2019-05-21T13:15:09.701Z,14.30
2019-05-21T13:17:38.551Z,14.20
2019-05-21T13:20:08.401Z,14.20
2019-05-21T13:22:38.170Z,14.20
2019-05-21T13:25:07.730Z,14.20
2019-05-21T13:27:36.923Z,14.20
2019-05-21T13:30:06.264Z,14.20
2019-05-21T13:32:35.106Z,14.20
2019-05-21T13:35:04.565Z,14.20
2019-05-21T13:37:33.489Z,14.30
2019-05-21T13:40:02.341Z,14.30
2019-05-21T13:42:31.212Z,14.30
2019-05-21T13:45:00.090Z,14.30
2019-05-21T13:47:28.942Z,14.30
2019-05-21T13:49:58.010Z,14.40
2019-05-21T13:52:26.909Z,14.40
2019-05-21T13:54:55.786Z,14.50
2019-05-21T13:57:24.570Z,14.50
2019-05-21T13:59:53.438Z,14.50
2019-05-21T14:02:22.415Z,14.60
2019-05-21T14:04:51.324Z,14.60
2019-05-21T14:07:20.191Z,14.60
2019-05-21T14:10:10.777Z,14.60
2019-05-21T14:12:20.238Z,14.60
2019-05-21T14:14:49.163Z,14.50
2019-05-21T14:17:18.298Z,14.40
2019-05-21T14:19:47.323Z,14.40
2019-05-21T14:22:16.208Z,14.30
2019-05-21T14:24:45.082Z,14.30
2019-05-21T14:27:14.310Z,14.30
2019-05-21T14:29:43.095Z,14.30
2019-05-21T14:32:11.966Z,14.30
2019-05-21T14:34:41.093Z,14.30
2019-05-21T14:37:09.911Z,14.30
2019-05-21T14:39:39.041Z,14.30
2019-05-21T14:42:07.898Z,14.20
2019-05-21T14:44:36.846Z,14.20
2019-05-21T14:47:08.011Z,14.20
2019-05-21T14:49:36.819Z,14.30
2019-05-21T14:52:06.067Z,14.30
2019-05-21T14:54:35.089Z,14.30
2019-05-21T14:57:07.874Z,14.20
2019-05-21T14:59:36.942Z,14.20
2019-05-21T15:02:05.987Z,14.20
2019-05-21T15:04:35.178Z,14.20
2019-05-21T15:07:04.659Z,14.20
2019-05-21T15:09:33.890Z,14.10
2019-05-21T15:12:03.600Z,14.10
2019-05-21T15:14:33.350Z,14.10
2019-05-21T15:17:02.314Z,14.00
2019-05-21T15:19:31.148Z,14.00
2019-05-21T15:21:59.930Z,14.00
2019-05-21T15:24:28.842Z,14.00
2019-05-21T15:26:57.963Z,14.00
2019-05-21T15:29:26.745Z,14.00
2019-05-21T15:31:55.515Z,14.00
2019-05-21T15:34:24.846Z,14.00
2019-05-21T15:36:54.083Z,13.90
2019-05-21T15:39:24.268Z,14.00
2019-05-21T15:41:53.621Z,14.00
2019-05-21T15:44:22.409Z,14.00
2019-05-21T15:46:52.833Z,14.00
2019-05-21T15:49:35.004Z,14.00
2019-05-21T15:51:52.307Z,13.90
2019-05-21T15:54:21.061Z,14.00
2019-05-21T15:56:50.063Z,14.00
2019-05-21T15:59:18.969Z,14.00
2019-05-21T16:01:48.122Z,14.00
2019-05-21T16:04:17.193Z,13.90
2019-05-21T16:06:45.941Z,13.90
2019-05-21T16:09:14.844Z,14.00
2019-05-21T16:11:44.143Z,14.00
2019-05-21T16:14:13.197Z,14.00
2019-05-21T16:16:42.563Z,14.00
2019-05-21T16:19:11.455Z,14.00
2019-05-21T16:21:40.742Z,14.00
2019-05-21T16:24:09.534Z,14.00
2019-05-21T16:26:38.555Z,13.90
2019-05-21T16:29:07.665Z,13.90
2019-05-21T16:31:36.528Z,13.90
2019-05-21T16:34:05.720Z,13.80
2019-05-21T16:36:34.842Z,13.90
2019-05-21T16:39:05.240Z,13.90
2019-05-21T16:41:44.237Z,13.90
2019-05-21T16:44:04.765Z,14.00
2019-05-21T16:46:33.574Z,13.90
2019-05-21T16:49:03.193Z,13.90
2019-05-21T16:51:32.985Z,14.00
2019-05-21T16:54:01.767Z,14.00
2019-05-21T16:56:30.898Z,13.90
2019-05-21T16:58:59.720Z,13.90
2019-05-21T17:01:29.059Z,13.90
2019-05-21T17:04:00.148Z,13.90
2019-05-21T17:06:28.657Z,13.90
2019-05-21T17:08:57.745Z,13.90
2019-05-21T17:11:26.825Z,14.00
2019-05-21T17:13:56.384Z,14.00
2019-05-21T17:16:25.417Z,13.90
2019-05-21T17:18:54.918Z,14.00
2019-05-21T17:21:40.282Z,14.00
2019-05-21T17:24:09.608Z,14.00
2019-05-21T17:26:38.694Z,14.00
2019-05-21T17:29:08.273Z,14.00
2019-05-21T17:31:37.046Z,14.00
2019-05-21T17:34:07.169Z,13.90
2019-05-21T17:36:36.173Z,14.00
2019-05-21T17:39:06.485Z,14.00
2019-05-21T17:41:35.409Z,13.90
2019-05-21T17:44:04.323Z,13.80
2019-05-21T17:46:33.869Z,13.80
2019-05-21T17:49:02.962Z,13.80
2019-05-21T17:51:32.501Z,13.90
2019-05-21T17:54:01.578Z,13.90
2019-05-21T17:56:30.348Z,13.90
2019-05-21T17:58:59.204Z,13.90
2019-05-21T18:01:28.513Z,13.80
2019-05-21T18:03:57.355Z,13.80
2019-05-21T18:06:26.444Z,13.80
2019-05-21T18:08:55.393Z,13.80
2019-05-21T18:11:24.294Z,13.80
2019-05-21T18:13:53.138Z,13.80
2019-05-21T18:16:21.982Z,13.80
2019-05-21T18:18:51.289Z,13.70
2019-05-21T18:21:20.531Z,13.70
2019-05-21T18:23:49.313Z,13.70
2019-05-21T18:26:18.808Z,13.70
2019-05-21T18:28:47.973Z,13.70
2019-05-21T18:31:17.512Z,13.70
2019-05-21T18:33:46.596Z,13.70
2019-05-21T18:36:15.365Z,13.70
2019-05-21T18:38:44.141Z,13.70
2019-05-21T18:41:13.181Z,13.70
2019-05-21T18:43:42.510Z,13.70
2019-05-21T18:46:11.294Z,13.70
2019-05-21T18:48:40.302Z,13.70
2019-05-21T18:51:09.429Z,13.70
2019-05-21T18:53:38.193Z,13.70
2019-05-21T18:56:07.202Z,13.70
2019-05-21T18:58:36.057Z,13.70
2019-05-21T19:01:04.944Z,13.70
2019-05-21T19:03:39.765Z,13.70
2019-05-21T19:06:08.597Z,13.70
2019-05-21T19:08:37.458Z,13.70
2019-05-21T19:11:06.593Z,13.70
2019-05-21T19:13:35.785Z,13.70
2019-05-21T19:16:04.978Z,13.70
2019-05-21T19:18:33.907Z,13.60
2019-05-21T19:21:02.996Z,13.60
2019-05-21T19:23:32.997Z,13.60
2019-05-21T19:26:02.149Z,13.60
2019-05-21T19:28:31.326Z,13.60
2019-05-21T19:31:00.337Z,13.50
2019-05-21T19:33:31.329Z,13.50
2019-05-21T19:36:00.684Z,13.50
2019-05-21T19:38:29.709Z,13.50
2019-05-21T19:40:58.921Z,13.50
2019-05-21T19:43:28.272Z,13.50
2019-05-21T19:45:57.116Z,13.50
2019-05-21T19:48:25.944Z,13.50
2019-05-21T19:50:55.225Z,13.50
2019-05-21T19:53:24.558Z,13.50
2019-05-21T19:55:54.174Z,13.50
2019-05-21T19:58:23.346Z,13.50
2019-05-21T20:00:55.342Z,13.40
2019-05-21T20:03:24.694Z,13.40
2019-05-21T20:05:54.442Z,13.40
2019-05-21T20:08:23.616Z,13.40
2019-05-21T20:10:52.493Z,13.40
2019-05-21T20:13:32.222Z,13.40
2019-05-21T20:15:53.024Z,13.40
2019-05-21T20:18:22.945Z,13.40
2019-05-21T20:20:52.708Z,13.40
2019-05-21T20:23:21.872Z,13.40
2019-05-21T20:25:56.561Z,13.40
2019-05-21T20:28:22.437Z,13.40
2019-05-21T20:30:51.738Z,13.40
2019-05-21T20:33:21.222Z,13.40
2019-05-21T20:35:52.583Z,13.50
2019-05-21T20:38:23.470Z,13.50
2019-05-21T20:40:53.117Z,13.50
2019-05-21T20:43:22.157Z,13.50
2019-05-21T20:45:51.691Z,13.50
2019-05-21T20:48:22.176Z,13.50
2019-05-21T20:50:51.300Z,13.60
2019-05-21T20:53:20.315Z,13.50
2019-05-21T20:55:49.500Z,13.50
2019-05-21T20:58:18.747Z,13.50
2019-05-21T21:00:52.167Z,13.50
2019-05-21T21:03:21.774Z,13.60
2019-05-21T21:05:50.925Z,13.60
2019-05-21T21:08:20.518Z,13.60
2019-05-21T21:10:50.164Z,13.50
2019-05-21T21:13:19.132Z,13.50
2019-05-21T21:15:48.989Z,13.50
2019-05-21T21:18:18.182Z,13.50
2019-05-21T21:20:47.365Z,13.60
2019-05-21T21:23:18.399Z,13.60
2019-05-21T21:25:47.369Z,13.60
2019-05-21T21:28:16.634Z,13.60
2019-05-21T21:30:45.629Z,13.60
2019-05-21T21:33:15.022Z,13.60
2019-05-21T21:35:44.050Z,13.60
2019-05-21T21:38:16.057Z,13.60
2019-05-21T21:40:45.071Z,13.60
2019-05-21T21:43:14.453Z,13.60
2019-05-21T21:45:43.626Z,13.60
2019-05-21T21:48:14.865Z,13.60
2019-05-21T21:50:43.792Z,13.60
2019-05-21T21:53:13.013Z,13.60
2019-05-21T21:55:42.278Z,13.60
2019-05-21T21:58:11.208Z,13.60
2019-05-21T22:01:17.976Z,13.60
2019-05-21T22:03:47.230Z,13.60
2019-05-21T22:06:18.103Z,13.60
2019-05-21T22:08:47.385Z,13.50
2019-05-21T22:11:17.446Z,13.50
2019-05-21T22:13:47.188Z,13.50
2019-05-21T22:16:16.389Z,13.60
2019-05-21T22:18:45.881Z,13.60
2019-05-21T22:21:14.792Z,13.60
2019-05-21T22:23:44.216Z,13.60
2019-05-21T22:26:13.075Z,13.70
2019-05-21T22:28:42.436Z,13.70
2019-05-21T22:31:11.362Z,13.70
2019-05-21T22:33:40.541Z,13.70
2019-05-21T22:36:09.962Z,13.60
2019-05-21T22:38:39.040Z,13.70
2019-05-21T22:41:08.133Z,13.70
2019-05-21T22:43:37.622Z,13.60
2019-05-21T22:46:06.749Z,13.70
2019-05-21T22:48:35.837Z,13.60
2019-05-21T22:51:05.107Z,13.60
2019-05-21T22:53:34.133Z,13.60
2019-05-21T22:56:03.101Z,13.60
2019-05-21T22:58:31.872Z,13.60
2019-05-21T23:01:02.514Z,13.60
2019-05-21T23:03:31.857Z,13.60
2019-05-21T23:19:24.140Z,13.60
2019-05-21T23:25:20.791Z,13.60
2019-05-21T23:27:49.858Z,13.60
2019-05-21T23:30:19.440Z,13.50
2019-05-21T23:32:48.716Z,13.60
2019-05-21T23:35:18.253Z,13.60
2019-05-21T23:37:47.883Z,13.60
2019-05-21T23:40:17.159Z,13.60
2019-05-21T23:42:46.125Z,13.60
2019-05-21T23:45:16.343Z,13.60
2019-05-21T23:47:45.657Z,13.70
2019-05-21T23:50:15.048Z,13.60
2019-05-21T23:52:44.246Z,13.70
2019-05-21T23:55:14.463Z,13.70
2019-05-21T23:57:43.818Z,13.70
